createdAt,value
2022-08-08T00:01:00.575Z,91.65
2022-08-08T00:03:43.338Z,91.18
2022-08-08T00:06:28.249Z,91.34
2022-08-08T00:09:09.429Z,91.09
2022-08-08T00:11:46.964Z,90.87
2022-08-08T00:14:57.047Z,91.16
2022-08-08T00:18:02.478Z,91.03
2022-08-08T00:20:36.104Z,91.47
2022-08-08T00:23:07.953Z,91.51
2022-08-08T00:25:46.166Z,91.32
2022-08-08T00:28:34.888Z,91.29
2022-08-08T00:32:29.361Z,91.63
2022-08-08T00:34:22.186Z,92.17
2022-08-08T00:37:05.544Z,92.27
2022-08-08T00:41:09.040Z,92.23
2022-08-08T00:42:46.570Z,91.69
2022-08-08T00:45:51.437Z,92.56
2022-08-08T00:49:05.171Z,92.39
2022-08-08T00:52:20.132Z,92.49
2022-08-08T00:55:05.526Z,92.61
2022-08-08T00:58:13.548Z,94.49
2022-08-08T01:00:50.593Z,94.28
2022-08-08T01:04:02.094Z,94.64
2022-08-08T01:07:17.598Z,94.41
2022-08-08T01:10:18.461Z,93.37
2022-08-08T01:13:14.975Z,93.31
2022-08-08T01:16:16.886Z,93.38
2022-08-08T01:20:01.229Z,93.23
2022-08-08T01:22:35.412Z,92.48
2022-08-08T01:25:40.346Z,93.26
2022-08-08T01:28:47.201Z,92.54
2022-08-08T01:32:13.515Z,92.83
2022-08-08T01:35:11.918Z,92.27
2022-08-08T01:38:15.193Z,92.67
2022-08-08T01:40:57.961Z,92.40
2022-08-08T01:43:38.795Z,92.68
2022-08-08T01:46:24.727Z,92.42
2022-08-08T01:49:01.614Z,92.53
2022-08-08T01:52:41.057Z,93.38
2022-08-08T01:55:44.891Z,93.58
2022-08-08T01:58:10.979Z,92.90
2022-08-08T02:00:44.610Z,93.29
2022-08-08T02:03:54.629Z,93.43
2022-08-08T02:06:36.724Z,93.52
2022-08-08T02:10:02.421Z,93.66
2022-08-08T02:12:22.306Z,92.92
2022-08-08T02:14:59.330Z,92.83
2022-08-08T02:17:42.471Z,93.09
2022-08-08T02:21:02.388Z,94.21
2022-08-08T02:23:16.321Z,94.30
2022-08-08T02:25:52.418Z,95.67
2022-08-08T02:28:35.071Z,94.82
2022-08-08T02:31:44.028Z,94.81
2022-08-08T02:34:08.777Z,94.64
2022-08-08T02:36:41.651Z,94.54
2022-08-08T02:39:42.313Z,95.08
2022-08-08T02:42:48.241Z,95.08
2022-08-08T02:45:56.822Z,94.71
2022-08-08T02:48:48.358Z,94.80
2022-08-08T02:51:56.766Z,94.97
2022-08-08T02:54:54.387Z,95.21
2022-08-08T02:57:59.077Z,94.94
2022-08-08T03:01:08.591Z,95.74
2022-08-08T03:05:04.333Z,94.71
2022-08-08T03:07:41.661Z,94.96
2022-08-08T03:10:43.467Z,94.57
2022-08-08T03:16:03.868Z,94.69
2022-08-08T03:16:48.899Z,95.19
2022-08-08T03:19:51.319Z,95.25
2022-08-08T03:22:38.814Z,94.71
2022-08-08T03:25:14.644Z,94.30
2022-08-08T03:27:47.456Z,94.14
2022-08-08T03:30:24.158Z,94.41
2022-08-08T03:33:54.733Z,94.44
2022-08-08T03:36:01.009Z,94.78
2022-08-08T03:38:56.191Z,95.16
2022-08-08T03:42:13.378Z,95.52
2022-08-08T03:44:06.638Z,95.34
2022-08-08T03:46:47.153Z,94.83
2022-08-08T03:49:56.677Z,94.98
2022-08-08T03:52:12.981Z,95.16
2022-08-08T03:55:02.252Z,96.02
2022-08-08T03:58:30.032Z,96.04
2022-08-08T04:00:26.765Z,96.77
2022-08-08T04:03:11.185Z,96.85
2022-08-08T04:05:49.902Z,97.76
2022-08-08T04:08:33.057Z,98.50
2022-08-08T04:11:10.673Z,98.14
2022-08-08T04:14:04.069Z,97.59
2022-08-08T04:16:40.757Z,97.48
2022-08-08T04:19:23.036Z,97.62
2022-08-08T04:21:54.164Z,97.34
2022-08-08T04:24:29.450Z,97.73
2022-08-08T04:27:01.057Z,98.06
2022-08-08T04:29:36.845Z,97.33
2022-08-08T04:32:08.278Z,97.27
2022-08-08T04:34:42.845Z,97.25
2022-08-08T04:37:31.459Z,97.27
2022-08-08T04:40:04.873Z,97.71
2022-08-08T04:42:46.719Z,98.54
2022-08-08T04:45:28.575Z,98.63
2022-08-08T04:48:00.447Z,98.93
2022-08-08T04:50:38.715Z,98.53
2022-08-08T04:53:14.126Z,98.68
2022-08-08T04:56:01.281Z,98.73
2022-08-08T04:58:33.108Z,98.75
2022-08-08T05:01:06.020Z,98.44
2022-08-08T05:04:09.493Z,98.46
2022-08-08T05:06:29.007Z,98.61
2022-08-08T05:09:02.124Z,99.41
2022-08-08T05:11:38.868Z,99.76
2022-08-08T05:14:12.405Z,99.40
2022-08-08T05:16:51.869Z,99.57
2022-08-08T05:20:11.634Z,99.32
2022-08-08T05:22:17.637Z,99.45
2022-08-08T05:24:48.987Z,99.55
2022-08-08T05:27:20.016Z,99.73
2022-08-08T05:29:50.361Z,99.44
2022-08-08T05:32:24.565Z,99.17
2022-08-08T05:35:04.471Z,98.39
2022-08-08T05:37:51.959Z,96.84
2022-08-08T05:40:28.377Z,95.41
2022-08-08T05:43:38.193Z,93.81
2022-08-08T05:45:53.026Z,92.82
2022-08-08T05:48:28.796Z,92.03
2022-08-08T05:51:13.556Z,90.92
2022-08-08T05:54:24.482Z,89.82
2022-08-08T05:56:31.613Z,89.41
2022-08-08T05:59:05.004Z,87.56
2022-08-08T06:01:52.803Z,87.63
2022-08-08T06:04:30.175Z,87.25
2022-08-08T06:07:01.932Z,85.42
2022-08-08T06:10:00.618Z,85.77
2022-08-08T06:12:29.926Z,84.53
2022-08-08T06:15:02.847Z,81.85
2022-08-08T06:17:50.824Z,82.45
2022-08-08T06:20:23.082Z,81.72
2022-08-08T06:22:53.885Z,81.58
2022-08-08T06:26:35.776Z,81.25
2022-08-08T06:28:16.162Z,76.43
2022-08-08T06:30:45.935Z,75.79
2022-08-08T06:33:15.206Z,75.74
2022-08-08T06:36:08.052Z,73.01
2022-08-08T06:38:39.374Z,74.86
2022-08-08T06:41:13.319Z,73.12
2022-08-08T06:43:47.734Z,72.86
2022-08-08T06:46:30.025Z,72.54
2022-08-08T06:48:58.458Z,72.08
2022-08-08T06:51:45.836Z,69.78
2022-08-08T06:54:19.106Z,66.76
2022-08-08T06:56:51.526Z,65.90
2022-08-08T06:59:21.275Z,62.23
2022-08-08T07:02:26.451Z,60.57
2022-08-08T07:04:54.145Z,57.63
2022-08-08T07:07:35.248Z,54.00
2022-08-08T07:10:08.153Z,53.85
2022-08-08T07:12:47.762Z,50.55
2022-08-08T07:15:40.985Z,49.89
2022-08-08T07:18:35.707Z,48.89
2022-08-08T07:21:18.669Z,49.29
2022-08-08T07:24:00.907Z,49.81
2022-08-08T07:26:35.504Z,51.97
2022-08-08T07:29:08.209Z,48.98
2022-08-08T07:31:41.205Z,48.11
2022-08-08T07:34:26.747Z,47.91
2022-08-08T07:37:11.771Z,45.80
2022-08-08T07:39:45.460Z,44.80
2022-08-08T07:42:32.799Z,46.55
2022-08-08T07:45:02.165Z,46.02
2022-08-08T07:47:38.349Z,44.56
2022-08-08T07:50:10.068Z,45.06
2022-08-08T07:52:43.455Z,48.93
2022-08-08T07:55:19.294Z,44.12
2022-08-08T07:57:55.746Z,46.50
2022-08-08T08:00:25.530Z,46.75
2022-08-08T08:03:09.838Z,46.85
2022-08-08T08:05:43.859Z,46.38
2022-08-08T08:08:21.366Z,45.45
2022-08-08T08:10:53.874Z,44.97
2022-08-08T08:13:43.122Z,44.53
2022-08-08T08:16:17.304Z,43.68
2022-08-08T08:18:55.721Z,44.16
2022-08-08T08:21:44.782Z,43.88
2022-08-08T08:24:32.182Z,44.76
2022-08-08T08:27:09.307Z,42.13
2022-08-08T08:29:38.067Z,41.77
2022-08-08T08:32:08.954Z,43.13
2022-08-08T08:34:37.978Z,40.78
2022-08-08T08:37:12.410Z,41.15
2022-08-08T08:40:02.089Z,43.46
2022-08-08T08:42:36.251Z,42.28
2022-08-08T08:45:21.120Z,42.06
2022-08-08T08:47:58.383Z,42.29
2022-08-08T08:50:32.718Z,41.78
2022-08-08T08:53:04.738Z,42.84
2022-08-08T08:55:52.976Z,45.88
2022-08-08T08:58:28.325Z,41.54
2022-08-08T09:01:08.591Z,42.17
2022-08-08T09:03:45.946Z,42.58
2022-08-08T09:06:26.802Z,41.84
2022-08-08T09:09:04.677Z,43.07
2022-08-08T09:11:35.164Z,40.77
2022-08-08T09:14:17.480Z,41.10
2022-08-08T09:16:46.083Z,43.29
2022-08-08T09:21:53.653Z,42.57
2022-08-08T09:22:07.722Z,42.89
2022-08-08T09:24:36.771Z,42.07
2022-08-08T09:27:15.033Z,41.47
2022-08-08T09:30:00.200Z,43.59
2022-08-08T09:32:36.934Z,41.66
2022-08-08T09:35:09.859Z,41.97
2022-08-08T09:38:01.062Z,41.63
2022-08-08T09:40:44.104Z,41.12
2022-08-08T09:43:23.973Z,40.35
2022-08-08T09:46:02.853Z,41.42
2022-08-08T09:48:36.333Z,43.16
2022-08-08T09:51:06.846Z,41.34
2022-08-08T09:53:56.516Z,42.20
2022-08-08T09:56:27.768Z,40.90
2022-08-08T09:58:58.728Z,39.60
2022-08-08T10:01:59.293Z,41.54
2022-08-08T10:04:41.275Z,39.91
2022-08-08T10:07:14.009Z,38.14
2022-08-08T10:10:00.203Z,37.42
2022-08-08T10:12:52.527Z,38.62
2022-08-08T10:15:25.050Z,39.19
2022-08-08T10:18:09.153Z,41.66
2022-08-08T10:20:51.456Z,38.92
2022-08-08T10:23:41.878Z,42.36
2022-08-08T10:26:29.729Z,38.49
2022-08-08T10:29:04.245Z,41.36
2022-08-08T10:31:50.943Z,38.70
2022-08-08T10:34:22.040Z,37.92
2022-08-08T10:36:50.877Z,40.01
2022-08-08T10:39:23.355Z,38.40
2022-08-08T10:42:14.766Z,40.35
2022-08-08T10:44:43.493Z,38.45
2022-08-08T10:47:14.574Z,40.58
2022-08-08T10:50:01.152Z,41.66
2022-08-08T10:52:32.278Z,39.90
2022-08-08T10:55:06.232Z,39.46
2022-08-08T10:57:49.459Z,38.09
2022-08-08T11:00:22.633Z,36.93
2022-08-08T11:02:53.810Z,37.48
2022-08-08T11:05:23.413Z,37.32
2022-08-08T11:08:37.005Z,37.36
2022-08-08T11:10:41.583Z,37.20
2022-08-08T11:16:00.751Z,36.73
2022-08-08T11:18:30.695Z,35.34
2022-08-08T11:20:59.874Z,34.84
2022-08-08T11:23:32.830Z,36.20
2022-08-08T11:26:00.814Z,37.10
2022-08-08T11:28:30.748Z,38.01
2022-08-08T11:31:03.945Z,35.59
2022-08-08T11:33:51.555Z,36.93
2022-08-08T11:36:23.233Z,36.83
2022-08-08T11:38:57.194Z,35.06
2022-08-08T11:41:27.638Z,37.13
2022-08-08T11:43:57.857Z,34.74
2022-08-08T11:46:28.056Z,35.63
2022-08-08T11:48:58.803Z,37.18
2022-08-08T11:51:37.284Z,34.14
2022-08-08T11:54:26.634Z,34.78
2022-08-08T11:56:56.659Z,35.67
2022-08-08T12:00:01.640Z,36.82
2022-08-08T12:02:32.153Z,34.55
2022-08-08T12:05:02.042Z,34.06
2022-08-08T12:07:31.996Z,35.75
2022-08-08T12:10:11.876Z,35.93
2022-08-08T12:12:48.077Z,35.53
2022-08-08T12:15:28.730Z,34.76
2022-08-08T12:17:56.430Z,36.02
2022-08-08T12:20:25.499Z,37.69
2022-08-08T12:22:54.766Z,36.40
2022-08-08T12:25:30.087Z,36.60
2022-08-08T12:28:15.720Z,33.68
2022-08-08T12:30:49.951Z,35.57
2022-08-08T12:33:19.498Z,32.81
2022-08-08T12:35:52.454Z,34.53
2022-08-08T12:38:30.242Z,33.27
2022-08-08T12:41:18.362Z,30.11
2022-08-08T12:44:00.093Z,32.70
2022-08-08T12:46:28.805Z,32.22
2022-08-08T12:49:43.456Z,33.24
2022-08-08T12:51:58.504Z,31.74
2022-08-08T12:54:33.076Z,31.76
2022-08-08T12:57:14.037Z,31.25
2022-08-08T13:00:03.838Z,31.26
2022-08-08T13:02:35.814Z,31.81
2022-08-08T13:05:26.002Z,33.22
2022-08-08T13:08:04.300Z,34.76
2022-08-08T13:10:36.559Z,33.18
2022-08-08T13:13:28.058Z,34.53
2022-08-08T13:15:56.029Z,32.11
2022-08-08T13:18:27.617Z,30.78
2022-08-08T13:20:55.926Z,31.42
2022-08-08T13:23:35.986Z,29.27
2022-08-08T13:26:14.310Z,30.77
2022-08-08T13:28:45.681Z,30.70
2022-08-08T13:31:17.149Z,29.03
2022-08-08T13:33:49.793Z,31.01
2022-08-08T13:36:26.319Z,29.59
2022-08-08T13:38:54.383Z,31.60
2022-08-08T13:41:23.985Z,30.92
2022-08-08T13:43:57.594Z,30.82
2022-08-08T13:46:26.384Z,29.91
2022-08-08T13:49:11.601Z,30.04
2022-08-08T13:51:53.583Z,28.18
2022-08-08T13:54:21.599Z,27.12
2022-08-08T13:57:00.905Z,31.30
2022-08-08T13:59:33.284Z,29.03
2022-08-08T14:02:10.598Z,28.70
2022-08-08T14:04:52.807Z,31.85
2022-08-08T14:07:22.698Z,32.65
2022-08-08T14:10:05.253Z,31.04
2022-08-08T14:12:43.815Z,31.39
2022-08-08T14:15:31.360Z,30.83
2022-08-08T14:18:35.156Z,34.79
2022-08-08T14:21:03.146Z,34.26
2022-08-08T14:24:07.252Z,35.03
2022-08-08T14:26:29.304Z,34.45
2022-08-08T14:29:01.599Z,35.44
2022-08-08T14:31:36.623Z,37.33
2022-08-08T14:34:23.235Z,34.83
2022-08-08T14:36:55.642Z,34.50
2022-08-08T14:39:24.980Z,34.62
2022-08-08T14:42:03.160Z,32.92
2022-08-08T14:44:35.499Z,32.45
2022-08-08T14:47:21.108Z,32.58
2022-08-08T14:50:05.892Z,32.83
2022-08-08T14:52:43.786Z,32.56
2022-08-08T14:55:14.002Z,33.65
2022-08-08T14:58:03.069Z,33.56
2022-08-08T15:00:34.767Z,32.38
2022-08-08T15:03:15.055Z,33.49
2022-08-08T15:05:53.588Z,29.86
2022-08-08T15:08:34.653Z,31.57
2022-08-08T15:11:07.083Z,34.16
2022-08-08T15:13:40.941Z,32.86
2022-08-08T15:16:25.597Z,32.70
2022-08-08T15:18:55.513Z,33.11
2022-08-08T15:21:23.083Z,32.76
2022-08-08T15:23:57.571Z,33.09
2022-08-08T15:26:25.634Z,33.66
2022-08-08T15:28:54.316Z,33.84
2022-08-08T15:31:55.801Z,35.81
2022-08-08T15:34:18.440Z,35.28
2022-08-08T15:36:57.058Z,34.33
2022-08-08T15:39:25.686Z,35.02
2022-08-08T15:41:53.557Z,35.57
2022-08-08T15:44:22.199Z,34.08
2022-08-08T15:46:50.953Z,34.65
2022-08-08T15:49:22.295Z,34.32
2022-08-08T15:51:51.815Z,35.69
2022-08-08T15:54:38.794Z,37.14
2022-08-08T15:57:08.885Z,35.58
2022-08-08T16:00:05.426Z,37.16
2022-08-08T16:02:30.493Z,37.07
2022-08-08T16:05:00.347Z,38.06
2022-08-08T16:07:39.253Z,39.04
2022-08-08T16:13:04.326Z,38.03
2022-08-08T16:13:33.555Z,39.99
2022-08-08T16:15:58.637Z,40.13
2022-08-08T16:18:34.482Z,40.04
2022-08-08T16:21:06.032Z,40.22
2022-08-08T16:23:55.611Z,43.04
2022-08-08T16:26:33.678Z,45.10
2022-08-08T16:29:04.045Z,43.49
2022-08-08T16:31:35.590Z,44.23
2022-08-08T16:34:04.937Z,43.90
2022-08-08T16:36:34.469Z,43.25
2022-08-08T16:39:10.014Z,44.53
2022-08-08T16:41:50.447Z,45.62
2022-08-08T16:44:28.135Z,45.74
2022-08-08T16:47:16.174Z,45.04
2022-08-08T16:49:43.712Z,44.50
2022-08-08T16:55:20.750Z,44.33
2022-08-08T16:55:25.544Z,47.89
2022-08-08T16:58:14.183Z,50.47
2022-08-08T17:00:37.443Z,47.81
2022-08-08T17:03:05.145Z,49.38
2022-08-08T17:05:44.762Z,47.95
2022-08-08T17:08:14.030Z,47.62
2022-08-08T17:10:53.608Z,49.83
2022-08-08T17:13:27.609Z,48.83
2022-08-08T17:16:16.540Z,48.67
2022-08-08T17:18:45.508Z,48.53
2022-08-08T17:21:13.691Z,50.64
2022-08-08T17:24:00.527Z,50.15
2022-08-08T17:26:30.150Z,51.80
2022-08-08T17:28:58.664Z,51.43
2022-08-08T17:31:43.607Z,50.04
2022-08-08T17:34:48.796Z,52.09
2022-08-08T17:37:03.343Z,51.11
2022-08-08T17:40:04.826Z,50.56
2022-08-08T17:42:20.758Z,48.83
2022-08-08T17:44:50.813Z,50.22
2022-08-08T17:47:27.683Z,51.78
2022-08-08T17:50:02.598Z,54.06
2022-08-08T17:52:31.066Z,52.21
2022-08-08T17:55:05.418Z,53.49
2022-08-08T17:57:49.895Z,52.51
2022-08-08T18:00:19.736Z,52.92
2022-08-08T18:02:58.152Z,54.42
2022-08-08T18:05:48.148Z,52.81
2022-08-08T18:08:24.754Z,53.99
2022-08-08T18:11:15.050Z,54.58
2022-08-08T18:13:44.230Z,54.49
2022-08-08T18:16:20.967Z,56.14
2022-08-08T18:18:53.157Z,55.12
2022-08-08T18:21:34.901Z,55.41
2022-08-08T18:24:17.346Z,58.44
2022-08-08T18:26:54.248Z,57.41
2022-08-08T18:29:27.360Z,56.23
2022-08-08T18:32:00.697Z,58.69
2022-08-08T18:34:32.974Z,59.88
2022-08-08T18:37:02.871Z,59.06
2022-08-08T18:39:34.622Z,62.04
2022-08-08T18:42:12.971Z,60.26
2022-08-08T18:44:42.235Z,59.25
2022-08-08T18:47:24.007Z,60.53
2022-08-08T18:49:58.900Z,59.58
2022-08-08T18:52:28.076Z,59.14
2022-08-08T18:54:59.398Z,59.84
2022-08-08T18:57:40.847Z,62.66
2022-08-08T19:00:16.482Z,61.46
2022-08-08T19:02:48.347Z,64.71
2022-08-08T19:05:23.885Z,64.09
2022-08-08T19:07:58.292Z,62.82
2022-08-08T19:10:27.600Z,60.93
2022-08-08T19:12:56.495Z,63.11
2022-08-08T19:15:33.671Z,63.06
2022-08-08T19:18:33.528Z,63.59
2022-08-08T19:20:50.602Z,65.73
2022-08-08T19:23:21.626Z,66.73
2022-08-08T19:26:26.975Z,69.42
2022-08-08T19:28:38.326Z,68.02
2022-08-08T19:31:09.998Z,67.53
2022-08-08T19:34:04.740Z,70.55
2022-08-08T19:36:30.197Z,69.57
2022-08-08T19:38:57.733Z,70.36
2022-08-08T19:41:29.248Z,71.71
2022-08-08T19:44:03.768Z,71.96
2022-08-08T19:46:33.084Z,72.08
2022-08-08T19:49:01.365Z,73.19
2022-08-08T19:51:34.188Z,73.42
2022-08-08T19:54:06.958Z,73.62
2022-08-08T19:56:39.722Z,73.19
2022-08-08T19:59:10.003Z,72.68
2022-08-08T20:02:01.595Z,71.66
2022-08-08T20:04:25.806Z,74.49
2022-08-08T20:06:53.908Z,73.59
2022-08-08T20:09:24.512Z,73.37
2022-08-08T20:11:52.996Z,73.83
2022-08-08T20:14:33.763Z,72.91
2022-08-08T20:17:02.886Z,73.26
2022-08-08T20:19:34.291Z,75.53
2022-08-08T20:22:04.796Z,76.32
2022-08-08T20:24:32.614Z,75.44
2022-08-08T20:27:04.966Z,75.93
2022-08-08T20:29:55.842Z,75.13
2022-08-08T20:32:26.613Z,75.13
2022-08-08T20:35:00.809Z,75.89
2022-08-08T20:37:46.977Z,76.21
2022-08-08T20:40:17.141Z,78.67
2022-08-08T20:42:54.155Z,78.59
2022-08-08T20:45:57.929Z,78.42
2022-08-08T20:48:13.645Z,78.52
2022-08-08T20:50:48.924Z,79.82
2022-08-08T20:54:01.072Z,78.57
2022-08-08T20:56:04.034Z,81.28
2022-08-08T20:58:32.050Z,81.06
2022-08-08T21:01:00.878Z,78.72
2022-08-08T21:03:29.888Z,79.87
2022-08-08T21:05:59.289Z,81.04
2022-08-08T21:08:36.100Z,79.63
2022-08-08T21:11:09.780Z,79.29
2022-08-08T21:13:41.067Z,80.58
2022-08-08T21:16:18.278Z,79.77
2022-08-08T21:18:57.414Z,79.45
2022-08-08T21:21:41.372Z,79.93
2022-08-08T21:24:20.986Z,80.65
2022-08-08T21:26:56.569Z,81.10
2022-08-08T21:30:03.683Z,81.56
2022-08-08T21:32:14.289Z,83.22
2022-08-08T21:34:56.945Z,83.02
2022-08-08T21:37:53.504Z,83.05
2022-08-08T21:40:30.919Z,83.72
2022-08-08T21:42:59.140Z,83.97
2022-08-08T21:47:59.178Z,84.32
2022-08-08T21:48:21.201Z,84.22
2022-08-08T21:50:51.852Z,84.74
2022-08-08T21:54:27.409Z,84.29
2022-08-08T21:56:20.111Z,84.79
2022-08-08T21:58:55.819Z,84.50
2022-08-08T22:01:38.851Z,85.04
2022-08-08T22:04:11.358Z,85.19
2022-08-08T22:06:40.780Z,85.19
2022-08-08T22:09:10.015Z,85.29
2022-08-08T22:11:56.584Z,85.65
2022-08-08T22:14:26.536Z,85.70
2022-08-08T22:16:54.610Z,85.51
2022-08-08T22:19:24.271Z,86.11
2022-08-08T22:21:51.922Z,86.77
2022-08-08T22:24:23.886Z,87.51
2022-08-08T22:27:01.769Z,86.70
2022-08-08T22:29:59.018Z,88.15
2022-08-08T22:32:18.826Z,87.98
2022-08-08T22:34:51.137Z,87.91
2022-08-08T22:37:27.848Z,88.39
2022-08-08T22:40:07.561Z,88.46
2022-08-08T22:42:45.542Z,88.45
2022-08-08T22:45:15.205Z,88.49
2022-08-08T22:47:48.814Z,89.22
2022-08-08T22:50:26.556Z,89.63
2022-08-08T22:53:22.463Z,89.60
2022-08-08T22:55:59.555Z,89.83
2022-08-08T22:58:31.195Z,89.80
2022-08-08T23:01:00.805Z,89.58
2022-08-08T23:03:34.408Z,89.76
2022-08-08T23:06:17.830Z,89.93
2022-08-08T23:08:55.563Z,90.47
2022-08-08T23:11:57.995Z,89.92
2022-08-08T23:14:15.440Z,90.08
2022-08-08T23:16:43.718Z,90.76
2022-08-08T23:19:15.169Z,90.63
2022-08-08T23:21:45.688Z,90.85
2022-08-08T23:24:22.266Z,90.79
2022-08-08T23:26:53.544Z,90.93
2022-08-08T23:29:23.660Z,91.50
2022-08-08T23:31:51.213Z,92.36
2022-08-08T23:34:19.611Z,92.13
2022-08-08T23:36:52.231Z,91.54
2022-08-08T23:39:22.067Z,92.10
2022-08-08T23:41:49.693Z,91.73
2022-08-08T23:44:18.667Z,91.56
2022-08-08T23:49:07.324Z,91.93
2022-08-08T23:49:34.426Z,92.38
2022-08-08T23:52:08.816Z,92.66
2022-08-08T23:54:41.286Z,93.13
2022-08-08T23:57:26.870Z,93.02
